Flight Track Log - Related Links

Times and Time Zones

All times are in EDT time to prevent confusion due to time zone crossing. See the UAL495 flight status page for this flight to view local times or setup timezone preferences in your user account.

Time Position Orientation Groundspeed Altitude Reporting Facility
EDT Latitude Longitude Course Direction KTS MPH feet Rate Location/Type
Sat 08:55:15 AM 33.9333 -118.4500 90° East 186 214 1,900  Level Southern California TRACON
Sat 08:55:34 AM 33.9236 -118.4622 226° Southwest 194 223 2,200 2,203 Climbing Los Angeles Center
Sat 08:56:34 AM 33.8689 -118.5111 217° Southwest 244 281 4,800 2,678 Climbing Los Angeles Center
Sat 08:57:00 AM 33.7709 -118.6279 132° Southeast  Level FlightAware Approximate
Sat 08:57:35 AM 33.8008 -118.5150 183° South 273 314 7,600  Level Los Angeles Center
Sat 08:58:00 AM 33.6871 -118.5214 134° Southeast  Level FlightAware Approximate
Sat 08:58:35 AM 33.7222 -118.5186 182° South 286 329 10,600  Level Los Angeles Center
Sat 08:59:00 AM 33.6530 -118.3825 116° Southeast  Level FlightAware Approximate
Sat 08:59:36 AM 33.6633 -118.4247 127° Southeast 335 386 13,000  Level Los Angeles Center
Sat 09:00:00 AM 33.6333 -118.2415 90° East  Level FlightAware Approximate
Sat 09:00:36 AM 33.6453 -118.3061 100° East 372 428 15,200  Level Los Angeles Center
Sat 09:01:36 AM 33.6539 -118.1808 85° East 390 449 17,400 2,331 Climbing Los Angeles Center
Sat 09:02:37 AM 33.7336 -118.0919 43° Northeast 405 466 19,900 2,231 Climbing Los Angeles Center
Sat 09:03:37 AM 33.8275 -118.0167 34° Northeast 409 471 21,900 1,950 Climbing Los Angeles Center
Sat 09:04:37 AM 33.9214 -117.9300 37° Northeast 425 489 23,800 1,785 Climbing Los Angeles Center
Sat 09:05:38 AM 34.0192 -117.8400 37° Northeast 442 509 25,500 1,736 Climbing Los Angeles Center
Sat 09:06:38 AM 34.1161 -117.7414 40° Northeast 455 524 27,300 1,650 Climbing Los Angeles Center
Sat 09:07:38 AM 34.2028 -117.6244 48° Northeast 466 536 28,800 1,388 Climbing Los Angeles Center
Sat 09:08:39 AM 34.2908 -117.5033 49° Northeast 479 551 30,100 1,537 Climbing Los Angeles Center
Sat 09:09:39 AM 34.3936 -117.3600 49° Northeast 490 564 31,900 1,686 Climbing Los Angeles Center
Sat 09:10:40 AM 34.4828 -117.2400 48° Northeast 484 557 33,500 1,488 Climbing Los Angeles Center
Sat 09:11:40 AM 34.5725 -117.1200 48° Northeast 484 557 34,900 1,300 Climbing Los Angeles Center
Sat 09:12:40 AM 34.6467 -117.0294 45° Northeast 478 550 36,100 1,041 Climbing Los Angeles Center
Sat 09:13:41 AM 34.7544 -116.8928 46° Northeast 472 543 37,000 446 Climbing Los Angeles Center
Sat 09:14:41 AM 34.8419 -116.7778 47° Northeast 468 539 37,000  Level Los Angeles Center
Sat 09:15:42 AM 34.9303 -116.6633 47° Northeast 468 539 37,000  Level Los Angeles Center
Sat 09:16:42 AM 35.0208 -116.5486 46° Northeast 471 542 37,000  Level Los Angeles Center
Sat 09:17:43 AM 35.1114 -116.4319 46° Northeast 476 548 37,000  Level Los Angeles Center
Sat 09:18:44 AM 35.2017 -116.3147 47° Northeast 476 548 37,000  Level Los Angeles Center
Sat 09:19:44 AM 35.2928 -116.1942 47° Northeast 481 554 37,000  Level Los Angeles Center
Sat 09:20:45 AM 35.3844 -116.0761 46° Northeast 481 554 37,000  Level Los Angeles Center
Sat 09:21:45 AM 35.4761 -115.9569 47° Northeast 482 555 37,000  Level Los Angeles Center
Sat 09:22:46 AM 35.5733 -115.8331 46° Northeast 479 551 37,000  Level Los Angeles Center
Sat 09:23:47 AM 35.6450 -115.7400 47° Northeast 473 544 37,000  Level Los Angeles Center
Sat 09:24:47 AM 35.7536 -115.5956 47° Northeast 478 550 37,000  Level Los Angeles Center
Sat 09:25:48 AM 35.8433 -115.4744 48° Northeast 481 554 37,000  Level Los Angeles Center
Sat 09:26:49 AM 35.9519 -115.3297 47° Northeast 483 556 37,000  Level Los Angeles Center
Sat 09:27:49 AM 36.0419 -115.2086 47° Northeast 482 555 37,000  Level Los Angeles Center
Sat 09:28:53 AM 36.1333 -115.0903 46° Northeast 481 554 37,000  Level Los Angeles Center
Sat 09:29:51 AM 36.2267 -114.9703 46° Northeast 485 558 37,000  Level Los Angeles Center
Sat 09:30:52 AM 36.3208 -114.8503 46° Northeast 488 562 37,000  Level Los Angeles Center
Sat 09:31:52 AM 36.4142 -114.7317 46° Northeast 484 557 37,000  Level Los Angeles Center
Sat 09:32:53 AM 36.4900 -114.6328 46° Northeast 491 565 37,000  Level Los Angeles Center
Sat 09:33:54 AM 36.6025 -114.4850 46° Northeast 491 565 37,000  Level Los Angeles Center
Sat 09:34:55 AM 36.6956 -114.3622 47° Northeast 489 563 37,000  Level Los Angeles Center
Sat 09:35:55 AM 36.7847 -114.2311 50° Northeast 494 568 37,000  Level Los Angeles Center
Sat 09:36:56 AM 36.8556 -114.0789 60° Northeast 504 580 37,000  Level Los Angeles Center
Sat 09:37:57 AM 36.9278 -113.9289 59° Northeast 504 580 37,000  Level Los Angeles Center
Sat 09:39:10 AM 37.0256 -113.7239 59° Northeast 504 580 37,000  Level Los Angeles Center
Sat 09:40:11 AM 37.0981 -113.5736 59° Northeast 506 582 37,000  Level Los Angeles Center
Sat 09:41:12 AM 37.1683 -113.4231 60° Northeast 503 579 37,000  Level Los Angeles Center
Sat 09:42:14 AM 37.2264 -113.3028 59° Northeast 505 581 37,000  Level Los Angeles Center
Sat 09:43:13 AM 37.3114 -113.1206 60° Northeast 506 582 37,000  Level Los Angeles Center
Sat 09:43:28 AM 37.3247 -113.0906 61° Northeast 507 583 37,000  Level Salt Lake Center
Sat 09:44:29 AM 37.3956 -112.9383 60° Northeast 509 586 37,000  Level Salt Lake Center
Sat 09:45:30 AM 37.4800 -112.7575 59° Northeast 512 589 37,000  Level Salt Lake Center
Sat 09:46:31 AM 37.5508 -112.6078 59° Northeast 511 588 37,000  Level Salt Lake Center
Sat 09:47:32 AM 37.6217 -112.4550 60° Northeast 510 587 37,000  Level Salt Lake Center
Sat 09:48:34 AM 37.6933 -112.3025 59° Northeast 510 587 37,000  Level Salt Lake Center
Sat 09:49:35 AM 37.7747 -112.1575 55° Northeast 509 586 37,000  Level Salt Lake Center
Sat 09:50:36 AM 37.8581 -112.0147 53° Northeast 507 583 37,000  Level Salt Lake Center
Sat 09:51:37 AM 37.9414 -111.8708 54° Northeast 508 585 37,000  Level Salt Lake Center
Sat 09:52:38 AM 38.0250 -111.7258 54° Northeast 510 587 37,000  Level Salt Lake Center
Sat 09:53:39 AM 38.1250 -111.5519 54° Northeast 510 587 37,000  Level Salt Lake Center
Sat 09:54:40 AM 38.2069 -111.4056 55° Northeast 511 588 37,000  Level Salt Lake Center
Sat 09:55:41 AM 38.2889 -111.2597 54° Northeast 509 586 37,000  Level Salt Lake Center
Sat 09:56:42 AM 38.3706 -111.1153 54° Northeast 505 581 37,000  Level Salt Lake Center
Sat 09:57:43 AM 38.4506 -110.9700 55° Northeast 503 579 37,000  Level Salt Lake Center
Sat 09:58:44 AM 38.5294 -110.8303 54° Northeast 500 575 37,000  Level Salt Lake Center
Sat 09:59:46 AM 38.6172 -110.6661 56° Northeast 500 575 37,000  Level Salt Lake Center
Sat 10:00:47 AM 38.6944 -110.5281 54° Northeast 499 574 37,000  Level Salt Lake Center
Sat 10:01:48 AM 38.7700 -110.3894 55° Northeast 497 572 37,000  Level Salt Lake Center
Sat 10:02:04 AM 38.7953 -110.3419 56° Northeast 497 572 37,000  Level Denver Center
Sat 10:03:05 AM 38.8697 -110.2014 56° Northeast 499 574 37,000  Level Denver Center
Sat 10:03:50 AM 38.9336 -110.0883 54° Northeast 495 570 37,000  Level Salt Lake Center
Sat 10:04:51 AM 39.0225 -109.9261 55° Northeast 495 570 37,000  Level Salt Lake Center
Sat 10:05:53 AM 39.0964 -109.7886 55° Northeast 490 564 37,000  Level Salt Lake Center
Sat 10:06:08 AM 39.1208 -109.7411 56° Northeast 493 567 37,000  Level Denver Center
Sat 10:06:54 AM 39.1700 -109.6511 55° Northeast 488 562 37,000  Level Salt Lake Center
Sat 10:07:55 AM 39.2553 -109.4919 55° Northeast 484 557 37,000  Level Salt Lake Center
Sat 10:08:56 AM 39.3286 -109.3544 55° Northeast 483 556 37,000  Level Salt Lake Center
Sat 10:09:12 AM 39.3511 -109.3067 59° Northeast 482 555 37,000  Level Denver Center
Sat 10:10:13 AM 39.4233 -109.1694 56° Northeast 483 556 37,000  Level Denver Center
Sat 10:10:59 AM 39.4842 -109.0578 55° Northeast 481 554 37,000  Level Salt Lake Center
Sat 10:11:14 AM 39.4956 -109.0342 58° Northeast 480 552 37,000  Level Denver Center
Sat 10:12:16 AM 39.5786 -108.8750 56° Northeast 479 551 37,000  Level Denver Center
Sat 10:13:17 AM 39.6569 -108.7253 56° Northeast 482 555 37,000  Level Denver Center
Sat 10:14:18 AM 39.7281 -108.5886 56° Northeast 479 551 37,000  Level Denver Center
Sat 10:15:32 AM 39.8111 -108.4272 56° Northeast 481 554 37,000  Level Denver Center
Sat 10:16:33 AM 39.8958 -108.2619 56° Northeast 490 564 37,000  Level Denver Center
Sat 10:17:35 AM 39.9483 -108.0750 70° East 491 565 37,000  Level Denver Center
Sat 10:18:48 AM 39.9886 -107.9106 72° East 495 570 37,000  Level Denver Center
Sat 10:19:50 AM 40.0375 -107.6842 74° East 508 585 37,000  Level Denver Center
Sat 10:20:51 AM 40.0642 -107.5131 78° East 504 580 37,000  Level Denver Center
Sat 10:21:53 AM 40.0847 -107.3700 79° East 502 578 37,000 -133 Level Denver Center
Sat 10:23:06 AM 40.1192 -107.1394 79° East 505 581 36,700 -1,200 Descending Denver Center
Sat 10:24:08 AM 40.1528 -106.9047 79° East 513 590 34,300 -1,790 Descending Denver Center
Sat 10:25:10 AM 40.1789 -106.7258 79° East 522 601 33,000 -1,463 Descending Denver Center
Sat 10:26:11 AM 40.2044 -106.5447 79° East 527 606 31,300 -2,293 Descending Denver Center
Sat 10:27:13 AM 40.2347 -106.3367 79° East 522 601 28,300 -2,371 Descending Denver Center
Sat 10:28:15 AM 40.2575 -106.1661 80° East 504 580 26,400 -1,378 Descending Denver Center
Sat 10:29:28 AM 40.2783 -106.0147 80° East 433 498 25,200 -1,822 Descending Denver Center
Sat 10:30:30 AM 40.3050 -105.8211 80° East 400 460 22,300 -1,887 Descending Denver Center
Sat 10:31:32 AM 40.3214 -105.6864 81° East 376 433 21,300 -1,500 Descending Denver Center
Sat 10:32:34 AM 40.3392 -105.5622 79° East 350 403 19,200 -1,756 Descending Denver Center
Sat 10:33:35 AM 40.3522 -105.4367 82° East 339 390 17,700 -1,171 Descending Denver Center
Sat 10:34:37 AM 40.3381 -105.3164 99° East 336 387 16,800 -1,258 Descending Denver Center
Sat 10:35:39 AM 40.3208 -105.1903 100° East 328 377 15,100 -1,548 Descending Denver Center
Sat 10:36:41 AM 40.3047 -105.0767 100° East 319 367 13,600 -1,024 Descending Denver Center
Sat 10:37:42 AM 40.2911 -104.9853 101° East 307 353 13,000 -878 Descending Denver Center
Sat 10:38:44 AM 40.2422 -104.8794 121° Southeast 281 323 11,800 -1,016 Descending Denver Center
Sat 10:39:46 AM 40.2042 -104.8011 122° Southeast 248 285 10,900 -1,016 Descending Denver Center
Sat 10:40:48 AM 40.1522 -104.7461 141° Southeast 227 261 9,700 -1,024 Descending Denver Center
Sat 10:41:49 AM 40.1008 -104.7181 157° South 203 234 8,800 -885 Descending Denver Center

Login

Don't have an account? Register now (free) for customized features, flight alerts, and more!